sensor_id;sensor_type;location;lat;lon;timestamp;pressure;altitude;pressure_sealevel;temperature;humidity
73338;BME280;61575;49.908;35.556;2022-11-20T00:01:14;99650.00;;;0.97;88.49
73338;BME280;61575;49.908;35.556;2022-11-20T00:04:16;99649.16;;;0.97;88.17
73338;BME280;61575;49.908;35.556;2022-11-20T00:07:18;99651.28;;;1.05;88.23
73338;BME280;61575;49.908;35.556;2022-11-20T00:10:20;99655.66;;;0.91;88.17
73338;BME280;61575;49.908;35.556;2022-11-20T00:13:22;99651.50;;;1.02;88.01
73338;BME280;61575;49.908;35.556;2022-11-20T00:16:26;99656.78;;;1.02;87.83
73338;BME280;61575;49.908;35.556;2022-11-20T00:19:28;99661.66;;;1.08;87.81
73338;BME280;61575;49.908;35.556;2022-11-20T00:22:30;99663.59;;;0.91;87.89
73338;BME280;61575;49.908;35.556;2022-11-20T00:25:34;99668.47;;;0.97;87.45
73338;BME280;61575;49.908;35.556;2022-11-20T00:28:37;99669.03;;;1.03;87.36
73338;BME280;61575;49.908;35.556;2022-11-20T00:31:39;99661.91;;;0.90;87.37
73338;BME280;61575;49.908;35.556;2022-11-20T00:34:41;99663.22;;;0.83;87.16
73338;BME280;61575;49.908;35.556;2022-11-20T00:37:42;99672.28;;;0.79;87.19
73338;BME280;61575;49.908;35.556;2022-11-20T00:40:44;99666.16;;;0.79;86.86
73338;BME280;61575;49.908;35.556;2022-11-20T00:43:54;99672.28;;;0.79;86.70
73338;BME280;61575;49.908;35.556;2022-11-20T00:46:56;99677.00;;;0.74;86.48
73338;BME280;61575;49.908;35.556;2022-11-20T00:49:58;99674.50;;;0.58;86.24
73338;BME280;61575;49.908;35.556;2022-11-20T00:53:00;99678.44;;;0.65;86.46
73338;BME280;61575;49.908;35.556;2022-11-20T00:56:04;99692.28;;;0.69;86.20
73338;BME280;61575;49.908;35.556;2022-11-20T00:59:08;99692.75;;;0.76;86.06
73338;BME280;61575;49.908;35.556;2022-11-20T01:02:10;99686.22;;;0.81;86.12
73338;BME280;61575;49.908;35.556;2022-11-20T01:05:12;99684.63;;;0.79;85.84
73338;BME280;61575;49.908;35.556;2022-11-20T01:08:14;99686.03;;;0.84;85.86
73338;BME280;61575;49.908;35.556;2022-11-20T01:11:19;99689.63;;;0.83;85.77
73338;BME280;61575;49.908;35.556;2022-11-20T01:14:21;99697.34;;;0.86;85.68
73338;BME280;61575;49.908;35.556;2022-11-20T01:17:23;99703.94;;;0.93;85.59
73338;BME280;61575;49.908;35.556;2022-11-20T01:20:25;99693.56;;;0.90;85.73
73338;BME280;61575;49.908;35.556;2022-11-20T01:23:30;99695.47;;;0.74;85.67
73338;BME280;61575;49.908;35.556;2022-11-20T01:26:35;99716.66;;;0.87;85.95
73338;BME280;61575;49.908;35.556;2022-11-20T01:29:37;99705.56;;;0.82;85.70
73338;BME280;61575;49.908;35.556;2022-11-20T01:32:39;99714.22;;;0.84;85.57
73338;BME280;61575;49.908;35.556;2022-11-20T01:35:40;99702.06;;;0.81;85.71
73338;BME280;61575;49.908;35.556;2022-11-20T01:38:43;99713.47;;;0.82;85.93
73338;BME280;61575;49.908;35.556;2022-11-20T01:41:46;99706.59;;;0.79;85.26
73338;BME280;61575;49.908;35.556;2022-11-20T01:48:54;99712.53;;;0.83;85.18
73338;BME280;61575;49.908;35.556;2022-11-20T01:52:02;99702.81;;;0.83;85.17
73338;BME280;61575;49.908;35.556;2022-11-20T01:55:13;99695.09;;;0.80;85.14
73338;BME280;61575;49.908;35.556;2022-11-20T01:58:20;99694.50;;;0.89;85.24
73338;BME280;61575;49.908;35.556;2022-11-20T02:01:23;99693.38;;;0.93;85.31
73338;BME280;61575;49.908;35.556;2022-11-20T02:04:25;99700.25;;;0.96;84.95
73338;BME280;61575;49.908;35.556;2022-11-20T02:07:27;99706.94;;;1.02;84.68
73338;BME280;61575;49.908;35.556;2022-11-20T02:10:31;99706.19;;;1.00;84.81
73338;BME280;61575;49.908;35.556;2022-11-20T02:13:33;99731.81;;;0.97;84.56
73338;BME280;61575;49.908;35.556;2022-11-20T02:16:47;99736.16;;;0.98;84.53
73338;BME280;61575;49.908;35.556;2022-11-20T02:19:49;99732.97;;;0.93;84.97
73338;BME280;61575;49.908;35.556;2022-11-20T02:23:10;99721.13;;;0.72;84.74
73338;BME280;61575;49.908;35.556;2022-11-20T02:26:15;99741.38;;;0.86;84.88
73338;BME280;61575;49.908;35.556;2022-11-20T02:29:24;99736.84;;;0.88;84.92
73338;BME280;61575;49.908;35.556;2022-11-20T02:32:30;99747.00;;;0.94;84.39
73338;BME280;61575;49.908;35.556;2022-11-20T02:38:34;99744.16;;;0.97;84.88
73338;BME280;61575;49.908;35.556;2022-11-20T02:41:37;99747.84;;;0.94;84.77
73338;BME280;61575;49.908;35.556;2022-11-20T02:44:39;99745.59;;;0.88;84.81
73338;BME280;61575;49.908;35.556;2022-11-20T02:47:41;99743.72;;;0.90;84.97
73338;BME280;61575;49.908;35.556;2022-11-20T02:50:42;99745.41;;;0.91;84.91
73338;BME280;61575;49.908;35.556;2022-11-20T02:53:44;99743.34;;;0.82;84.67
73338;BME280;61575;49.908;35.556;2022-11-20T02:56:46;99736.19;;;0.84;84.53
73338;BME280;61575;49.908;35.556;2022-11-20T02:59:48;99753.72;;;0.85;84.49
73338;BME280;61575;49.908;35.556;2022-11-20T03:02:50;99752.75;;;0.86;84.52
73338;BME280;61575;49.908;35.556;2022-11-20T03:05:52;99761.44;;;0.88;84.57
73338;BME280;61575;49.908;35.556;2022-11-20T03:08:54;99764.91;;;0.89;84.54
73338;BME280;61575;49.908;35.556;2022-11-20T03:11:56;99775.19;;;0.79;84.33
73338;BME280;61575;49.908;35.556;2022-11-20T03:14:58;99781.78;;;0.86;84.11
73338;BME280;61575;49.908;35.556;2022-11-20T03:18:00;99774.53;;;0.90;83.97
73338;BME280;61575;49.908;35.556;2022-11-20T03:21:02;99779.91;;;0.74;84.15
73338;BME280;61575;49.908;35.556;2022-11-20T03:24:04;99784.81;;;0.80;84.01
73338;BME280;61575;49.908;35.556;2022-11-20T03:27:06;99791.97;;;0.78;84.07
73338;BME280;61575;49.908;35.556;2022-11-20T03:30:08;99808.28;;;0.85;83.94
73338;BME280;61575;49.908;35.556;2022-11-20T03:33:10;99818.00;;;0.84;84.22
73338;BME280;61575;49.908;35.556;2022-11-20T03:36:14;99804.31;;;0.92;83.89
73338;BME280;61575;49.908;35.556;2022-11-20T03:39:17;99811.38;;;0.91;83.65
73338;BME280;61575;49.908;35.556;2022-11-20T03:42:19;99808.56;;;0.94;83.91
73338;BME280;61575;49.908;35.556;2022-11-20T03:45:39;99797.72;;;0.85;83.94
73338;BME280;61575;49.908;35.556;2022-11-20T03:48:41;99791.41;;;0.87;83.65
73338;BME280;61575;49.908;35.556;2022-11-20T03:51:47;99812.53;;;0.87;83.88
73338;BME280;61575;49.908;35.556;2022-11-20T03:54:49;99795.75;;;0.88;83.69
73338;BME280;61575;49.908;35.556;2022-11-20T03:57:51;99787.63;;;0.91;83.66
73338;BME280;61575;49.908;35.556;2022-11-20T04:00:53;99791.78;;;0.95;83.70
73338;BME280;61575;49.908;35.556;2022-11-20T04:03:56;99796.88;;;0.98;83.70
73338;BME280;61575;49.908;35.556;2022-11-20T04:06:58;99781.88;;;0.99;83.63
73338;BME280;61575;49.908;35.556;2022-11-20T04:10:00;99769.34;;;1.03;83.56
73338;BME280;61575;49.908;35.556;2022-11-20T04:13:02;99779.91;;;1.03;83.18
73338;BME280;61575;49.908;35.556;2022-11-20T04:16:05;99792.72;;;0.94;82.88
73338;BME280;61575;49.908;35.556;2022-11-20T04:19:13;99786.69;;;0.92;83.10
73338;BME280;61575;49.908;35.556;2022-11-20T04:22:15;99773.31;;;0.95;83.28
73338;BME280;61575;49.908;35.556;2022-11-20T04:25:17;99771.41;;;0.97;83.30
73338;BME280;61575;49.908;35.556;2022-11-20T04:28:19;99780.28;;;0.96;83.25
73338;BME280;61575;49.908;35.556;2022-11-20T04:31:27;99777.72;;;0.95;83.21
73338;BME280;61575;49.908;35.556;2022-11-20T04:34:29;99792.91;;;0.91;83.30
73338;BME280;61575;49.908;35.556;2022-11-20T04:37:31;99785.75;;;0.93;83.47
73338;BME280;61575;49.908;35.556;2022-11-20T04:40:33;99796.50;;;0.90;83.33
73338;BME280;61575;49.908;35.556;2022-11-20T04:43:35;99791.13;;;0.92;83.52
73338;BME280;61575;49.908;35.556;2022-11-20T04:46:42;99798.38;;;0.88;83.20
73338;BME280;61575;49.908;35.556;2022-11-20T04:49:44;99798.38;;;0.88;83.52
73338;BME280;61575;49.908;35.556;2022-11-20T04:52:46;99812.34;;;0.90;83.54
73338;BME280;61575;49.908;35.556;2022-11-20T04:55:47;99821.19;;;0.89;83.39
73338;BME280;61575;49.908;35.556;2022-11-20T04:58:49;99836.94;;;0.91;83.61
73338;BME280;61575;49.908;35.556;2022-11-20T05:01:51;99838.72;;;0.90;83.53
73338;BME280;61575;49.908;35.556;2022-11-20T05:04:53;99846.56;;;0.92;83.53
73338;BME280;61575;49.908;35.556;2022-11-20T05:07:56;99848.16;;;0.94;83.72
73338;BME280;61575;49.908;35.556;2022-11-20T05:11:00;99852.69;;;0.92;83.22
73338;BME280;61575;49.908;35.556;2022-11-20T05:14:02;99851.72;;;0.93;83.39
73338;BME280;61575;49.908;35.556;2022-11-20T05:17:04;99843.06;;;0.91;83.41
73338;BME280;61575;49.908;35.556;2022-11-20T05:20:07;99855.31;;;0.92;83.34
73338;BME280;61575;49.908;35.556;2022-11-20T05:23:09;99863.59;;;0.86;83.23
73338;BME280;61575;49.908;35.556;2022-11-20T05:26:19;99854.84;;;0.86;83.15
73338;BME280;61575;49.908;35.556;2022-11-20T05:29:22;99860.03;;;0.87;83.01
73338;BME280;61575;49.908;35.556;2022-11-20T05:32:24;99870.94;;;0.81;83.11
73338;BME280;61575;49.908;35.556;2022-11-20T05:35:27;99869.44;;;0.77;83.03
73338;BME280;61575;49.908;35.556;2022-11-20T05:38:29;99875.28;;;0.68;83.19
73338;BME280;61575;49.908;35.556;2022-11-20T05:41:33;99881.88;;;0.75;83.49
73338;BME280;61575;49.908;35.556;2022-11-20T05:44:35;99889.53;;;0.80;83.44
73338;BME280;61575;49.908;35.556;2022-11-20T05:47:36;99883.41;;;0.79;83.30
73338;BME280;61575;49.908;35.556;2022-11-20T05:50:38;99874.25;;;0.71;83.11
73338;BME280;61575;49.908;35.556;2022-11-20T05:53:41;99864.06;;;0.79;83.21
73338;BME280;61575;49.908;35.556;2022-11-20T05:56:49;99859.75;;;0.78;83.33
73338;BME280;61575;49.908;35.556;2022-11-20T05:59:51;99852.00;;;0.75;83.65
73338;BME280;61575;49.908;35.556;2022-11-20T06:02:53;99850.97;;;0.77;83.36
73338;BME280;61575;49.908;35.556;2022-11-20T06:05:55;99853.13;;;0.71;83.43
73338;BME280;61575;49.908;35.556;2022-11-20T06:08:57;99831.09;;;0.72;83.43
73338;BME280;61575;49.908;35.556;2022-11-20T06:12:00;99810.91;;;0.71;83.64
73338;BME280;61575;49.908;35.556;2022-11-20T06:15:03;99814.31;;;0.73;83.82
73338;BME280;61575;49.908;35.556;2022-11-20T06:18:05;99806.13;;;0.77;84.07
73338;BME280;61575;49.908;35.556;2022-11-20T06:21:09;99800.84;;;0.77;83.86
73338;BME280;61575;49.908;35.556;2022-11-20T06:24:12;99789.72;;;0.72;84.09
73338;BME280;61575;49.908;35.556;2022-11-20T06:27:14;99785.84;;;0.78;83.94
73338;BME280;61575;49.908;35.556;2022-11-20T06:30:16;99794.06;;;0.73;84.16
73338;BME280;61575;49.908;35.556;2022-11-20T06:33:18;99788.97;;;0.70;84.21
73338;BME280;61575;49.908;35.556;2022-11-20T06:36:22;99789.25;;;0.65;84.17
73338;BME280;61575;49.908;35.556;2022-11-20T06:39:24;99785.75;;;0.65;84.15
73338;BME280;61575;49.908;35.556;2022-11-20T06:42:26;99796.41;;;0.63;84.29
73338;BME280;61575;49.908;35.556;2022-11-20T06:45:27;99806.09;;;0.63;84.04
73338;BME280;61575;49.908;35.556;2022-11-20T06:48:30;99801.59;;;0.65;84.20
73338;BME280;61575;49.908;35.556;2022-11-20T06:51:32;99817.97;;;0.70;84.21
73338;BME280;61575;49.908;35.556;2022-11-20T06:54:33;99836.25;;;0.73;83.89
73338;BME280;61575;49.908;35.556;2022-11-20T06:57:35;99832.88;;;0.71;83.51
73338;BME280;61575;49.908;35.556;2022-11-20T07:00:37;99833.81;;;0.70;83.71
73338;BME280;61575;49.908;35.556;2022-11-20T07:03:40;99842.22;;;0.77;83.38
73338;BME280;61575;49.908;35.556;2022-11-20T07:06:42;99827.22;;;0.77;83.76
73338;BME280;61575;49.908;35.556;2022-11-20T07:09:44;99798.19;;;0.77;83.95
73338;BME280;61575;49.908;35.556;2022-11-20T07:12:49;99781.63;;;0.75;83.65
73338;BME280;61575;49.908;35.556;2022-11-20T07:15:52;99770.59;;;0.69;83.64
73338;BME280;61575;49.908;35.556;2022-11-20T07:18:54;99782.19;;;0.66;83.68
73338;BME280;61575;49.908;35.556;2022-11-20T07:21:56;99783.69;;;0.70;83.64
73338;BME280;61575;49.908;35.556;2022-11-20T07:24:57;99786.78;;;0.77;83.83
73338;BME280;61575;49.908;35.556;2022-11-20T07:28:00;99799.81;;;0.80;83.54
73338;BME280;61575;49.908;35.556;2022-11-20T07:31:02;99800.84;;;0.77;83.66
73338;BME280;61575;49.908;35.556;2022-11-20T07:34:05;99813.38;;;0.74;83.53
73338;BME280;61575;49.908;35.556;2022-11-20T07:37:07;99815.72;;;0.64;83.78
73338;BME280;61575;49.908;35.556;2022-11-20T07:40:15;99807.63;;;0.67;83.81
73338;BME280;61575;49.908;35.556;2022-11-20T07:43:17;99796.22;;;0.67;83.90
73338;BME280;61575;49.908;35.556;2022-11-20T07:46:19;99798.66;;;0.70;83.90
73338;BME280;61575;49.908;35.556;2022-11-20T07:49:20;99800.47;;;0.69;83.90
73338;BME280;61575;49.908;35.556;2022-11-20T07:52:23;99802.34;;;0.67;84.25
73338;BME280;61575;49.908;35.556;2022-11-20T07:55:25;99794.63;;;0.64;84.17
73338;BME280;61575;49.908;35.556;2022-11-20T07:58:28;99778.88;;;0.62;84.43
73338;BME280;61575;49.908;35.556;2022-11-20T08:01:30;99785.84;;;0.63;84.29
73338;BME280;61575;49.908;35.556;2022-11-20T08:04:32;99781.59;;;0.61;84.37
73338;BME280;61575;49.908;35.556;2022-11-20T08:07:36;99776.72;;;0.55;84.57
73338;BME280;61575;49.908;35.556;2022-11-20T08:10:38;99768.78;;;0.55;84.81
73338;BME280;61575;49.908;35.556;2022-11-20T08:13:40;99760.88;;;0.55;84.92
73338;BME280;61575;49.908;35.556;2022-11-20T08:17:01;99757.88;;;0.61;85.07
73338;BME280;61575;49.908;35.556;2022-11-20T08:20:03;99760.69;;;0.58;85.27
73338;BME280;61575;49.908;35.556;2022-11-20T08:23:06;99755.41;;;0.44;85.49
73338;BME280;61575;49.908;35.556;2022-11-20T08:26:09;99744.97;;;0.42;85.45
73338;BME280;61575;49.908;35.556;2022-11-20T08:29:11;99733.56;;;0.42;85.73
73338;BME280;61575;49.908;35.556;2022-11-20T08:32:13;99736.00;;;0.45;85.95
73338;BME280;61575;49.908;35.556;2022-11-20T08:35:15;99750.22;;;0.42;86.15
73338;BME280;61575;49.908;35.556;2022-11-20T08:38:16;99741.56;;;0.40;86.03
73338;BME280;61575;49.908;35.556;2022-11-20T08:41:19;99735.25;;;0.43;86.10
73338;BME280;61575;49.908;35.556;2022-11-20T08:44:28;99739.50;;;0.45;86.32
73338;BME280;61575;49.908;35.556;2022-11-20T08:47:30;99732.25;;;0.49;86.27
73338;BME280;61575;49.908;35.556;2022-11-20T08:50:32;99730.44;;;0.49;86.41
73338;BME280;61575;49.908;35.556;2022-11-20T08:53:34;99718.97;;;0.50;86.46
73338;BME280;61575;49.908;35.556;2022-11-20T08:56:36;99702.84;;;0.55;86.79
73338;BME280;61575;49.908;35.556;2022-11-20T08:59:38;99704.34;;;0.59;86.70
73338;BME280;61575;49.908;35.556;2022-11-20T09:03:01;99694.28;;;0.65;86.90
73338;BME280;61575;49.908;35.556;2022-11-20T09:06:05;99701.34;;;0.65;86.47
73338;BME280;61575;49.908;35.556;2022-11-20T09:09:08;99701.16;;;0.68;86.61
73338;BME280;61575;49.908;35.556;2022-11-20T09:12:10;99697.66;;;0.68;86.65
73338;BME280;61575;49.908;35.556;2022-11-20T09:15:12;99701.91;;;0.70;86.58
73338;BME280;61575;49.908;35.556;2022-11-20T09:18:14;99693.78;;;0.73;86.58
73338;BME280;61575;49.908;35.556;2022-11-20T09:21:16;99696.69;;;0.83;86.54
73338;BME280;61575;49.908;35.556;2022-11-20T09:24:18;99701.59;;;0.89;86.46
73338;BME280;61575;49.908;35.556;2022-11-20T09:27:20;99695.16;;;0.93;86.35
73338;BME280;61575;49.908;35.556;2022-11-20T09:30:23;99695.16;;;0.93;86.46
73338;BME280;61575;49.908;35.556;2022-11-20T09:33:26;99691.03;;;0.89;86.12
73338;BME280;61575;49.908;35.556;2022-11-20T09:36:28;99702.25;;;0.92;86.43
73338;BME280;61575;49.908;35.556;2022-11-20T09:39:30;99701.38;;;0.92;86.21
73338;BME280;61575;49.908;35.556;2022-11-20T09:42:49;99711.38;;;0.87;86.20
73338;BME280;61575;49.908;35.556;2022-11-20T09:46:02;99705.81;;;0.91;86.32
73338;BME280;61575;49.908;35.556;2022-11-20T09:52:26;99711.75;;;0.95;85.91
73338;BME280;61575;49.908;35.556;2022-11-20T09:55:35;99722.31;;;0.95;85.90
73338;BME280;61575;49.908;35.556;2022-11-20T09:58:59;99712.69;;;0.94;85.94
73338;BME280;61575;49.908;35.556;2022-11-20T10:05:25;99702.16;;;0.80;86.07
73338;BME280;61575;49.908;35.556;2022-11-20T10:08:38;99706.59;;;0.79;85.93
73338;BME280;61575;49.908;35.556;2022-11-20T10:12:20;99713.84;;;0.76;85.95
73338;BME280;61575;49.908;35.556;2022-11-20T10:15:36;99715.66;;;0.75;86.18
73338;BME280;61575;49.908;35.556;2022-11-20T10:18:54;99713.09;;;0.74;86.28
73338;BME280;61575;49.908;35.556;2022-11-20T10:25:39;99710.00;;;0.67;86.35
73338;BME280;61575;49.908;35.556;2022-11-20T10:28:48;99708.59;;;0.61;86.65
73338;BME280;61575;49.908;35.556;2022-11-20T10:32:16;99705.09;;;0.61;87.05
73338;BME280;61575;49.908;35.556;2022-11-20T10:35:23;99704.72;;;0.67;87.17
73338;BME280;61575;49.908;35.556;2022-11-20T10:38:46;99695.88;;;0.68;87.18
73338;BME280;61575;49.908;35.556;2022-11-20T10:41:52;99691.34;;;0.70;87.26
73338;BME280;61575;49.908;35.556;2022-11-20T10:45:04;99689.34;;;0.74;87.20
73338;BME280;61575;49.908;35.556;2022-11-20T10:48:20;99698.69;;;0.79;87.24
73338;BME280;61575;49.908;35.556;2022-11-20T10:54:49;99703.00;;;0.80;87.27
73338;BME280;61575;49.908;35.556;2022-11-20T11:01:21;99683.88;;;0.77;87.75
73338;BME280;61575;49.908;35.556;2022-11-20T11:07:38;99675.78;;;0.80;88.22
73338;BME280;61575;49.908;35.556;2022-11-20T11:10:54;99669.06;;;0.88;88.19
73338;BME280;61575;49.908;35.556;2022-11-20T11:14:12;99652.84;;;0.94;88.16
73338;BME280;61575;49.908;35.556;2022-11-20T11:20:29;99660.56;;;0.97;88.09
73338;BME280;61575;49.908;35.556;2022-11-20T11:23:34;99662.44;;;0.95;88.40
73338;BME280;61575;49.908;35.556;2022-11-20T11:26:38;99647.47;;;0.96;88.37
73338;BME280;61575;49.908;35.556;2022-11-20T11:29:40;99667.94;;;0.92;88.17
73338;BME280;61575;49.908;35.556;2022-11-20T11:32:42;99664.34;;;0.93;88.63
73338;BME280;61575;49.908;35.556;2022-11-20T11:35:47;99661.06;;;0.90;88.00
73338;BME280;61575;49.908;35.556;2022-11-20T11:38:52;99659.44;;;0.87;88.18
73338;BME280;61575;49.908;35.556;2022-11-20T11:41:55;99640.53;;;0.81;88.36
73338;BME280;61575;49.908;35.556;2022-11-20T11:44:59;99628.38;;;0.78;88.42
73338;BME280;61575;49.908;35.556;2022-11-20T11:48:08;99628.84;;;0.85;88.57
73338;BME280;61575;49.908;35.556;2022-11-20T11:51:11;99618.19;;;0.86;88.36
73338;BME280;61575;49.908;35.556;2022-11-20T12:01:35;99605.88;;;1.00;88.57
73338;BME280;61575;49.908;35.556;2022-11-20T12:04:46;99601.25;;;1.03;88.59
73338;BME280;61575;49.908;35.556;2022-11-20T12:08:09;99597.25;;;1.10;88.28
73338;BME280;61575;49.908;35.556;2022-11-20T12:14:37;99580.22;;;1.02;88.81
73338;BME280;61575;49.908;35.556;2022-11-20T12:17:40;99580.56;;;1.10;88.59
73338;BME280;61575;49.908;35.556;2022-11-20T12:20:48;99580.56;;;1.10;88.54
73338;BME280;61575;49.908;35.556;2022-11-20T12:37:58;99547.72;;;1.14;88.54
73338;BME280;61575;49.908;35.556;2022-11-20T12:41:13;99540.66;;;1.14;88.44
73338;BME280;61575;49.908;35.556;2022-11-20T12:44:48;99536.97;;;1.17;88.75
73338;BME280;61575;49.908;35.556;2022-11-20T12:55:49;99509.72;;;1.16;88.63
73338;BME280;61575;49.908;35.556;2022-11-20T13:08:53;99490.38;;;1.16;88.79
73338;BME280;61575;49.908;35.556;2022-11-20T13:12:12;99498.31;;;1.16;88.61
73338;BME280;61575;49.908;35.556;2022-11-20T13:15:48;99495.44;;;1.06;88.49
73338;BME280;61575;49.908;35.556;2022-11-20T13:18:52;99501.56;;;1.07;88.99
73338;BME280;61575;49.908;35.556;2022-11-20T13:21:54;99497.56;;;1.14;88.78
73338;BME280;61575;49.908;35.556;2022-11-20T13:24:56;99501.38;;;1.10;88.84
73338;BME280;61575;49.908;35.556;2022-11-20T13:31:30;99484.38;;;1.14;88.76
73338;BME280;61575;49.908;35.556;2022-11-20T13:34:33;99483.84;;;1.09;89.12
73338;BME280;61575;49.908;35.556;2022-11-20T13:37:37;99487.97;;;1.13;88.93
73338;BME280;61575;49.908;35.556;2022-11-20T13:41:00;99486.16;;;1.13;88.95
73338;BME280;61575;49.908;35.556;2022-11-20T13:44:38;99490.38;;;1.16;88.85
73338;BME280;61575;49.908;35.556;2022-11-20T13:47:47;99482.47;;;1.16;89.10
73338;BME280;61575;49.908;35.556;2022-11-20T14:04:20;99467.56;;;1.15;88.85
73338;BME280;61575;49.908;35.556;2022-11-20T14:07:32;99459.97;;;1.10;89.20
73338;BME280;61575;49.908;35.556;2022-11-20T14:10:37;99455.44;;;1.12;89.30
73338;BME280;61575;49.908;35.556;2022-11-20T14:13:52;99465.69;;;1.17;89.25
73338;BME280;61575;49.908;35.556;2022-11-20T14:17:07;99467.78;;;1.12;89.25
73338;BME280;61575;49.908;35.556;2022-11-20T14:20:14;99458.28;;;1.09;89.33
73338;BME280;61575;49.908;35.556;2022-11-20T14:23:25;99450.47;;;1.08;89.52
73338;BME280;61575;49.908;35.556;2022-11-20T14:26:31;99449.00;;;1.04;89.51
73338;BME280;61575;49.908;35.556;2022-11-20T14:29:35;99447.50;;;1.00;89.71
73338;BME280;61575;49.908;35.556;2022-11-20T14:32:38;99427.88;;;0.91;89.92
73338;BME280;61575;49.908;35.556;2022-11-20T14:35:48;99439.78;;;0.96;89.84
73338;BME280;61575;49.908;35.556;2022-11-20T14:38:51;99437.47;;;0.92;90.15
73338;BME280;61575;49.908;35.556;2022-11-20T14:41:54;99440.09;;;0.92;90.13
73338;BME280;61575;49.908;35.556;2022-11-20T14:44:58;99430.41;;;0.92;90.39
73338;BME280;61575;49.908;35.556;2022-11-20T14:48:00;99418.38;;;0.88;90.79
73338;BME280;61575;49.908;35.556;2022-11-20T14:51:02;99420.56;;;0.82;90.63
73338;BME280;61575;49.908;35.556;2022-11-20T14:54:16;99418.38;;;0.88;90.66
73338;BME280;61575;49.908;35.556;2022-11-20T14:57:25;99422.16;;;0.84;90.74
73338;BME280;61575;49.908;35.556;2022-11-20T15:00:28;99412.44;;;0.85;90.53
73338;BME280;61575;49.908;35.556;2022-11-20T15:03:36;99405.06;;;0.77;91.14
73338;BME280;61575;49.908;35.556;2022-11-20T15:06:49;99401.34;;;0.80;91.18
73338;BME280;61575;49.908;35.556;2022-11-20T15:10:07;99394.69;;;0.74;91.36
73338;BME280;61575;49.908;35.556;2022-11-20T15:13:15;99389.00;;;0.80;91.56
73338;BME280;61575;49.908;35.556;2022-11-20T15:16:20;99389.00;;;0.80;91.45
73338;BME280;61575;49.908;35.556;2022-11-20T15:19:26;99376.78;;;0.79;91.72
73338;BME280;61575;49.908;35.556;2022-11-20T15:22:28;99383.31;;;0.86;91.57
73338;BME280;61575;49.908;35.556;2022-11-20T15:25:30;99377.81;;;0.89;91.52
73338;BME280;61575;49.908;35.556;2022-11-20T15:28:44;99376.34;;;0.85;91.66
73338;BME280;61575;49.908;35.556;2022-11-20T15:31:46;99372.97;;;0.83;91.94
73338;BME280;61575;49.908;35.556;2022-11-20T15:34:48;99373.06;;;0.82;91.75
73338;BME280;61575;49.908;35.556;2022-11-20T15:37:50;99364.84;;;0.86;92.08
73338;BME280;61575;49.908;35.556;2022-11-20T15:40:52;99359.88;;;0.82;92.35
73338;BME280;61575;49.908;35.556;2022-11-20T15:43:54;99353.97;;;0.78;92.57
73338;BME280;61575;49.908;35.556;2022-11-20T15:46:56;99364.22;;;0.83;92.41
73338;BME280;61575;49.908;35.556;2022-11-20T15:49:58;99370.00;;;0.88;92.47
73338;BME280;61575;49.908;35.556;2022-11-20T15:53:01;99363.56;;;0.92;92.44
73338;BME280;61575;49.908;35.556;2022-11-20T15:56:03;99357.44;;;0.91;92.65
73338;BME280;61575;49.908;35.556;2022-11-20T15:59:05;99347.22;;;0.87;92.84
73338;BME280;61575;49.908;35.556;2022-11-20T16:02:11;99344.69;;;0.85;92.89
73338;BME280;61575;49.908;35.556;2022-11-20T16:05:19;99337.09;;;0.81;92.93
73338;BME280;61575;49.908;35.556;2022-11-20T16:08:24;99321.88;;;0.84;93.19
73338;BME280;61575;49.908;35.556;2022-11-20T16:11:26;99313.22;;;0.82;93.45
73338;BME280;61575;49.908;35.556;2022-11-20T16:14:28;99297.59;;;0.92;93.26
73338;BME280;61575;49.908;35.556;2022-11-20T16:17:48;99299.50;;;0.90;93.34
73338;BME280;61575;49.908;35.556;2022-11-20T16:20:52;99292.66;;;0.87;93.29
73338;BME280;61575;49.908;35.556;2022-11-20T16:23:55;99302.66;;;0.95;93.38
73338;BME280;61575;49.908;35.556;2022-11-20T16:26:58;99292.22;;;0.93;93.52
73338;BME280;61575;49.908;35.556;2022-11-20T16:30:00;99291.16;;;0.96;93.33
73338;BME280;61575;49.908;35.556;2022-11-20T16:33:02;99291.88;;;0.98;93.38
73338;BME280;61575;49.908;35.556;2022-11-20T16:36:09;99287.88;;;0.92;93.53
73338;BME280;61575;49.908;35.556;2022-11-20T16:39:12;99286.63;;;0.98;93.46
73338;BME280;61575;49.908;35.556;2022-11-20T16:42:14;99288.19;;;1.01;93.51
73338;BME280;61575;49.908;35.556;2022-11-20T16:45:16;99289.66;;;1.05;93.61
73338;BME280;61575;49.908;35.556;2022-11-20T16:48:26;99275.72;;;1.03;93.78
73338;BME280;61575;49.908;35.556;2022-11-20T16:51:29;99271.59;;;1.11;93.66
73338;BME280;61575;49.908;35.556;2022-11-20T16:54:31;99268.09;;;1.11;93.59
73338;BME280;61575;49.908;35.556;2022-11-20T16:57:33;99271.69;;;1.10;93.61
73338;BME280;61575;49.908;35.556;2022-11-20T17:00:36;99265.47;;;1.11;93.74
73338;BME280;61575;49.908;35.556;2022-11-20T17:03:39;99249.13;;;1.06;93.76
73338;BME280;61575;49.908;35.556;2022-11-20T17:06:43;99247.31;;;1.06;93.87
73338;BME280;61575;49.908;35.556;2022-11-20T17:09:45;99246.25;;;1.09;94.02
73338;BME280;61575;49.908;35.556;2022-11-20T17:12:47;99246.25;;;1.09;93.98
73338;BME280;61575;49.908;35.556;2022-11-20T17:15:49;99229.97;;;1.15;93.94
73338;BME280;61575;49.908;35.556;2022-11-20T17:18:50;99240.25;;;1.07;93.86
73338;BME280;61575;49.908;35.556;2022-11-20T17:22:01;99238.13;;;1.12;94.17
73338;BME280;61575;49.908;35.556;2022-11-20T17:25:03;99235.25;;;1.15;94.06
73338;BME280;61575;49.908;35.556;2022-11-20T17:28:05;99232.41;;;1.18;94.09
73338;BME280;61575;49.908;35.556;2022-11-20T17:31:09;99240.44;;;1.16;93.71
73338;BME280;61575;49.908;35.556;2022-11-20T17:34:13;99226.06;;;1.20;93.92
73338;BME280;61575;49.908;35.556;2022-11-20T17:37:16;99233.13;;;1.20;94.15
73338;BME280;61575;49.908;35.556;2022-11-20T17:40:17;99228.69;;;1.20;94.27
73338;BME280;61575;49.908;35.556;2022-11-20T17:43:27;99226.34;;;1.28;93.98
73338;BME280;61575;49.908;35.556;2022-11-20T17:46:36;99195.28;;;1.32;93.72
73338;BME280;61575;49.908;35.556;2022-11-20T17:49:38;99196.97;;;1.33;93.85